Batumi International Airport

Airport
ICAO code: 
UGSB
IATA Code: 
BUS
Summary
ICAO Region: 
APAC
Territory: 
Location: 
Batumi,
Serving: 
Batumi
Elevation: 
105 ft
Coordinates: 
Aerial View: 
41° 36' 37.001" N, 41° 35' 58.898" E
Metar
Observation
UGSB 281600Z 31005KT 9999 SCT032 BKN066 22/19 Q1011 NOSIG
Station
BATUMI
Date/Time
2022-06-28 16:00:00
Wind direction
310°
Wind speed
05 kts
Lowest cloud amount
scattered clouds
Temperature
22°C
Dew point
19°C
Humidity
83%
QNH
1011 hPa
Weather condition
n/a

Description

Batumi International Airport is an airport located 2 km south of Batumi, a city on the Black Sea coast and capital of Adjara, an autonomous republic in southwest Georgia. The airport is 20 km northeast of Hopa, Turkey, and serves as a domestic and international airport for Georgia and northeastern Turkey.

Runways

Designator Length Width Surface Rops
13/31 2233 46 ASP No/No
Airport map: 
Aerial View: 

SKYbrary Partners:

Safety knowledge contributed by: